Time,TemperatureF,DewpointF,PressureIn,WindDirection,WindDirectionDegrees,WindSpeedMPH,WindSpeedGustMPH,Humidity,HourlyPrecipIn,Conditions,Clouds,dailyrainin,SoftwareType,DateUTC
2013-02-03 00:03:00,60.0,45.0,30.16,WNW,296,5.0,8.0,57,-99.99,,,-99.99,,2013-02-03 05:03:00,
2013-02-03 00:22:00,58.0,45.0,30.16,WNW,290,6.0,7.0,61,-99.99,,,-99.99,,2013-02-03 05:22:00,
2013-02-03 00:42:00,56.0,42.0,30.15,WNW,289,5.0,7.0,57,-99.99,,,-99.99,,2013-02-03 05:42:00,
2013-02-03 00:52:00,56.0,42.0,30.15,WNW,289,5.0,7.0,57,-99.99,,,-99.99,,2013-02-03 05:52:00,
2013-02-03 01:02:00,56.0,43.0,30.15,WNW,288,4.0,5.0,62,-99.99,,,-99.99,,2013-02-03 06:02:00,
2013-02-03 01:11:00,54.0,42.0,30.15,WNW,289,3.0,5.0,63,-99.99,,,-99.99,,2013-02-03 06:11:00,
2013-02-03 01:21:00,54.0,42.0,30.15,WNW,289,3.0,5.0,63,-99.99,,,-99.99,,2013-02-03 06:21:00,
2013-02-03 01:32:00,54.0,42.0,30.15,WNW,289,3.0,5.0,63,-99.99,,,-99.99,,2013-02-03 06:32:00,
2013-02-03 01:42:00,56.0,46.0,30.15,NW,318,6.0,8.0,69,-99.99,,,-99.99,,2013-02-03 06:42:00,
2013-02-03 01:52:00,56.0,46.0,30.15,NW,318,6.0,8.0,69,-99.99,,,-99.99,,2013-02-03 06:52:00,
2013-02-03 02:02:00,57.0,46.0,30.14,NW,318,6.0,9.0,67,-99.99,,,-99.99,,2013-02-03 07:02:00,
2013-02-03 02:11:00,57.0,46.0,30.14,NW,318,6.0,9.0,67,-99.99,,,-99.99,,2013-02-03 07:11:00,
2013-02-03 02:21:00,53.0,43.0,30.13,WNW,292,5.0,8.0,69,-99.99,,,-99.99,,2013-02-03 07:21:00,
2013-02-03 02:32:00,53.0,43.0,30.13,WNW,292,5.0,8.0,69,-99.99,,,-99.99,,2013-02-03 07:32:00,
2013-02-03 02:42:00,54.0,44.0,30.13,NW,304,6.0,9.0,68,-99.99,,,-99.99,,2013-02-03 07:42:00,
2013-02-03 02:52:00,54.0,44.0,30.13,NW,304,6.0,9.0,68,-99.99,,,-99.99,,2013-02-03 07:52:00,
2013-02-03 03:02:00,53.0,44.0,30.12,WNW,300,6.0,10.0,70,-99.99,,,-99.99,,2013-02-03 08:02:00,
2013-02-03 03:11:00,52.0,44.0,30.12,WNW,294,5.0,8.0,72,-99.99,,,-99.99,,2013-02-03 08:11:00,
2013-02-03 03:22:00,52.0,44.0,30.12,WNW,294,5.0,8.0,72,-99.99,,,-99.99,,2013-02-03 08:22:00,
2013-02-03 03:32:00,52.0,44.0,30.12,WNW,298,4.0,8.0,74,-99.99,,,-99.99,,2013-02-03 08:32:00,
2013-02-03 03:42:00,50.0,42.0,30.12,WNW,286,4.0,5.0,75,-99.99,,,-99.99,,2013-02-03 08:42:00,
2013-02-03 03:52:00,50.0,42.0,30.12,WNW,286,4.0,5.0,75,-99.99,,,-99.99,,2013-02-03 08:52:00,
2013-02-03 04:03:00,48.0,41.0,30.12,West,276,4.0,5.0,76,-99.99,,,-99.99,,2013-02-03 09:03:00,
2013-02-03 04:11:00,47.0,41.0,30.11,West,278,4.0,6.0,78,-99.99,,,-99.99,,2013-02-03 09:11:00,
2013-02-03 04:22:00,47.0,41.0,30.11,West,278,4.0,6.0,78,-99.99,,,-99.99,,2013-02-03 09:22:00,
2013-02-03 04:32:00,49.0,43.0,30.12,WNW,291,4.0,6.0,79,-99.99,,,-99.99,,2013-02-03 09:32:00,
2013-02-03 04:42:00,47.0,41.0,30.12,West,274,3.0,4.0,78,-99.99,,,-99.99,,2013-02-03 09:42:00,
2013-02-03 04:52:00,47.0,41.0,30.12,West,274,3.0,4.0,78,-99.99,,,-99.99,,2013-02-03 09:52:00,
2013-02-03 05:01:00,47.0,41.0,30.11,West,273,4.0,6.0,79,-99.99,,,-99.99,,2013-02-03 10:01:00,
2013-02-03 05:11:00,47.0,41.0,30.12,West,276,4.0,6.0,77,-99.99,,,-99.99,,2013-02-03 10:11:00,
2013-02-03 05:21:00,47.0,41.0,30.12,West,276,4.0,6.0,77,-99.99,,,-99.99,,2013-02-03 10:21:00,
2013-02-03 05:32:00,49.0,43.0,30.12,WNW,301,5.0,9.0,78,-99.99,,,-99.99,,2013-02-03 10:32:00,
2013-02-03 05:42:00,51.0,44.0,30.12,WNW,298,8.0,12.0,75,-99.99,,,-99.99,,2013-02-03 10:42:00,
2013-02-03 05:53:00,51.0,43.0,30.13,WNW,301,9.0,16.0,75,-99.99,,,-99.99,,2013-02-03 10:53:00,
2013-02-03 06:02:00,51.0,43.0,30.13,WNW,301,9.0,16.0,75,-99.99,,,-99.99,,2013-02-03 11:02:00,
2013-02-03 06:11:00,50.0,42.0,30.14,NW,312,12.0,15.0,74,-99.99,,,-99.99,,2013-02-03 11:11:00,
2013-02-03 06:22:00,50.0,42.0,30.14,NW,312,12.0,15.0,74,-99.99,,,-99.99,,2013-02-03 11:22:00,
2013-02-03 06:32:00,50.0,42.0,30.14,NW,313,11.0,14.0,74,-99.99,,,-99.99,,2013-02-03 11:32:00,
2013-02-03 06:42:00,51.0,43.0,30.14,NW,320,12.0,18.0,74,-99.99,,,-99.99,,2013-02-03 11:42:00,
2013-02-03 06:52:00,51.0,42.0,30.16,NW,326,14.0,20.0,72,-99.99,,,-99.99,,2013-02-03 11:52:00,
2013-02-03 07:02:00,51.0,42.0,30.16,NW,326,14.0,20.0,72,-99.99,,,-99.99,,2013-02-03 12:02:00,
2013-02-03 07:12:00,51.0,43.0,30.16,NNW,327,13.0,18.0,73,-99.99,,,-99.99,,2013-02-03 12:12:00,
2013-02-03 07:22:00,51.0,43.0,30.16,NNW,327,13.0,18.0,73,-99.99,,,-99.99,,2013-02-03 12:22:00,
2013-02-03 07:32:00,51.0,43.0,30.16,NNW,327,13.0,18.0,73,-99.99,,,-99.99,,2013-02-03 12:32:00,
2013-02-03 07:42:00,51.0,42.0,30.17,NNW,328,12.0,17.0,70,-99.99,,,-99.99,,2013-02-03 12:42:00,
2013-02-03 07:53:00,51.0,41.0,30.18,NNW,329,11.0,15.0,69,-99.99,,,-99.99,,2013-02-03 12:53:00,
2013-02-03 08:03:00,51.0,41.0,30.18,NNW,329,11.0,15.0,69,-99.99,,,-99.99,,2013-02-03 13:03:00,
2013-02-03 08:11:00,51.0,42.0,30.18,NNW,334,11.0,14.0,69,-99.99,,,-99.99,,2013-02-03 13:11:00,
2013-02-03 08:22:00,52.0,42.0,30.18,NNW,341,9.0,12.0,67,-99.99,,,-99.99,,2013-02-03 13:22:00,
2013-02-03 08:32:00,52.0,42.0,30.18,NNW,341,9.0,12.0,67,-99.99,,,-99.99,,2013-02-03 13:32:00,
2013-02-03 08:42:00,52.0,42.0,30.19,NNW,340,9.0,11.0,66,-99.99,,,-99.99,,2013-02-03 13:42:00,
2013-02-03 08:52:00,52.0,41.0,30.19,NNW,337,9.0,11.0,65,-99.99,,,-99.99,,2013-02-03 13:52:00,
2013-02-03 09:02:00,52.0,41.0,30.19,NNW,337,9.0,11.0,65,-99.99,,,-99.99,,2013-02-03 14:02:00,
2013-02-03 09:12:00,53.0,42.0,30.19,NNW,332,8.0,11.0,65,-99.99,,,-99.99,,2013-02-03 14:12:00,
2013-02-03 09:22:00,53.0,42.0,30.19,NNW,332,8.0,11.0,65,-99.99,,,-99.99,,2013-02-03 14:22:00,
2013-02-03 09:32:00,53.0,42.0,30.19,NNW,328,8.0,11.0,65,-99.99,,,-99.99,,2013-02-03 14:32:00,
2013-02-03 09:42:00,54.0,42.0,30.19,NNW,329,8.0,11.0,63,-99.99,,,-99.99,,2013-02-03 14:42:00,
2013-02-03 09:52:00,54.0,41.0,30.19,NNW,328,6.0,10.0,61,-99.99,,,-99.99,,2013-02-03 14:52:00,
2013-02-03 10:03:00,54.0,41.0,30.19,NNW,328,6.0,10.0,61,-99.99,,,-99.99,,2013-02-03 15:03:00,
2013-02-03 10:12:00,55.0,41.0,30.19,NW,320,5.0,8.0,58,-99.99,,,-99.99,,2013-02-03 15:12:00,
2013-02-03 10:22:00,55.0,41.0,30.19,NW,320,5.0,8.0,58,-99.99,,,-99.99,,2013-02-03 15:22:00,
2013-02-03 10:33:00,55.0,40.0,30.19,NW,307,4.0,6.0,56,-99.99,,,-99.99,,2013-02-03 15:33:00,
2013-02-03 10:42:00,56.0,39.0,30.19,NW,305,5.0,7.0,51,-99.99,,,-99.99,,2013-02-03 15:42:00,
2013-02-03 10:52:00,57.0,38.0,30.19,NW,311,5.0,7.0,48,-99.99,,,-99.99,,2013-02-03 15:52:00,
2013-02-03 11:03:00,57.0,38.0,30.19,NW,311,5.0,7.0,48,-99.99,,,-99.99,,2013-02-03 16:03:00,
2013-02-03 11:11:00,59.0,39.0,30.19,NW,310,4.0,6.0,49,-99.99,,,-99.99,,2013-02-03 16:11:00,
2013-02-03 11:22:00,59.0,39.0,30.19,NW,310,4.0,6.0,49,-99.99,,,-99.99,,2013-02-03 16:22:00,
2013-02-03 11:33:00,59.0,41.0,30.18,NW,325,4.0,7.0,50,-99.99,,,-99.99,,2013-02-03 16:33:00,
2013-02-03 11:42:00,60.0,43.0,30.18,NNW,327,5.0,7.0,52,-99.99,,,-99.99,,2013-02-03 16:42:00,
2013-02-03 11:52:00,61.0,45.0,30.17,NNW,332,5.0,8.0,54,-99.99,,,-99.99,,2013-02-03 16:52:00,
2013-02-03 12:03:00,61.0,45.0,30.17,NNW,332,5.0,8.0,54,-99.99,,,-99.99,,2013-02-03 17:03:00,
2013-02-03 12:11:00,63.0,48.0,30.16,NNW,334,8.0,13.0,57,-99.99,,,-99.99,,2013-02-03 17:11:00,
2013-02-03 12:22:00,63.0,48.0,30.16,NNW,334,8.0,13.0,57,-99.99,,,-99.99,,2013-02-03 17:22:00,
2013-02-03 12:32:00,64.0,49.0,30.15,NNW,333,11.0,14.0,57,-99.99,,,-99.99,,2013-02-03 17:32:00,
2013-02-03 12:42:00,64.0,49.0,30.15,NW,320,11.0,15.0,57,-99.99,,,-99.99,,2013-02-03 17:42:00,
2013-02-03 12:52:00,64.0,49.0,30.14,NNW,339,12.0,15.0,57,-99.99,,,-99.99,,2013-02-03 17:52:00,
2013-02-03 13:03:00,64.0,49.0,30.14,NNW,339,12.0,15.0,57,-99.99,,,-99.99,,2013-02-03 18:03:00,
2013-02-03 13:12:00,64.0,49.0,30.14,West,263,11.0,14.0,57,-99.99,,,-99.99,,2013-02-03 18:12:00,
2013-02-03 13:23:00,64.0,49.0,30.14,West,263,11.0,14.0,57,-99.99,,,-99.99,,2013-02-03 18:23:00,
2013-02-03 13:33:00,65.0,49.0,30.13,NNW,332,11.0,14.0,57,-99.99,,,-99.99,,2013-02-03 18:33:00,
2013-02-03 13:42:00,65.0,50.0,30.12,SW,220,9.0,11.0,57,-99.99,,,-99.99,,2013-02-03 18:42:00,
2013-02-03 13:52:00,66.0,50.0,30.11,ESE,111,7.0,10.0,55,-99.99,,,-99.99,,2013-02-03 18:52:00,
2013-02-03 14:02:00,66.0,50.0,30.11,ESE,111,7.0,10.0,55,-99.99,,,-99.99,,2013-02-03 19:02:00,
2013-02-03 14:11:00,66.0,49.0,30.10,SSW,210,5.0,9.0,54,-99.99,,,-99.99,,2013-02-03 19:11:00,
2013-02-03 14:22:00,66.0,49.0,30.10,SSW,210,5.0,9.0,54,-99.99,,,-99.99,,2013-02-03 19:22:00,
2013-02-03 14:32:00,66.0,50.0,30.09,SSE,156,6.0,8.0,55,-99.99,,,-99.99,,2013-02-03 19:32:00,
2013-02-03 14:42:00,66.0,50.0,30.09,WSW,237,6.0,16.0,55,-99.99,,,-99.99,,2013-02-03 19:42:00,
2013-02-03 14:52:00,67.0,50.0,30.09,NW,321,13.0,19.0,53,-99.99,,,-99.99,,2013-02-03 19:52:00,
2013-02-03 15:02:00,67.0,50.0,30.09,NW,321,13.0,19.0,53,-99.99,,,-99.99,,2013-02-03 20:02:00,
2013-02-03 15:12:00,67.0,49.0,30.07,NW,318,12.0,19.0,53,-99.99,,,-99.99,,2013-02-03 20:12:00,
2013-02-03 15:22:00,67.0,49.0,30.07,NW,318,12.0,19.0,53,-99.99,,,-99.99,,2013-02-03 20:22:00,
2013-02-03 15:33:00,68.0,50.0,30.07,NW,323,11.0,16.0,53,-99.99,,,-99.99,,2013-02-03 20:33:00,
2013-02-03 15:42:00,67.0,50.0,30.07,NW,320,13.0,19.0,52,-99.99,,,-99.99,,2013-02-03 20:42:00,
2013-02-03 15:52:00,68.0,49.0,30.07,NW,309,11.0,17.0,49,-99.99,,,-99.99,,2013-02-03 20:52:00,
2013-02-03 16:03:00,68.0,49.0,30.07,NW,309,11.0,17.0,49,-99.99,,,-99.99,,2013-02-03 21:03:00,
2013-02-03 16:11:00,69.0,47.0,30.06,WNW,301,11.0,17.0,45,-99.99,,,-99.99,,2013-02-03 21:11:00,
2013-02-03 16:21:00,69.0,47.0,30.06,WNW,301,11.0,17.0,45,-99.99,,,-99.99,,2013-02-03 21:21:00,
2013-02-03 16:33:00,69.0,46.0,30.05,WNW,292,11.0,17.0,44,-99.99,,,-99.99,,2013-02-03 21:33:00,
2013-02-03 16:42:00,69.0,46.0,30.05,WNW,292,9.0,16.0,43,-99.99,,,-99.99,,2013-02-03 21:42:00,
2013-02-03 16:52:00,68.0,47.0,30.05,NW,308,11.0,17.0,46,-99.99,,,-99.99,,2013-02-03 21:52:00,
2013-02-03 17:02:00,68.0,47.0,30.05,NW,308,11.0,17.0,46,-99.99,,,-99.99,,2013-02-03 22:02:00,
2013-02-03 17:11:00,68.0,47.0,30.05,WNW,300,10.0,18.0,47,-99.99,,,-99.99,,2013-02-03 22:11:00,
2013-02-03 17:21:00,68.0,47.0,30.05,WNW,300,10.0,18.0,47,-99.99,,,-99.99,,2013-02-03 22:21:00,
2013-02-03 17:32:00,69.0,46.0,30.05,WNW,282,10.0,17.0,44,-99.99,,,-99.99,,2013-02-03 22:32:00,
2013-02-03 17:42:00,68.0,46.0,30.06,WNW,283,10.0,16.0,44,-99.99,,,-99.99,,2013-02-03 22:42:00,
2013-02-03 17:52:00,68.0,45.0,30.06,WNW,291,10.0,16.0,44,-99.99,,,-99.99,,2013-02-03 22:52:00,
2013-02-03 18:01:00,68.0,45.0,30.06,WNW,291,10.0,16.0,44,-99.99,,,-99.99,,2013-02-03 23:01:00,
2013-02-03 18:12:00,67.0,46.0,30.06,West,278,8.0,14.0,46,-99.99,,,-99.99,,2013-02-03 23:12:00,
2013-02-03 18:22:00,67.0,46.0,30.06,West,278,8.0,14.0,46,-99.99,,,-99.99,,2013-02-03 23:22:00,
2013-02-03 18:32:00,66.0,45.0,30.06,West,272,7.0,13.0,46,-99.99,,,-99.99,,2013-02-03 23:32:00,
2013-02-03 18:42:00,64.0,44.0,30.06,West,272,8.0,13.0,47,-99.99,,,-99.99,,2013-02-03 23:42:00,
2013-02-03 18:52:00,64.0,43.0,30.07,West,274,8.0,13.0,47,-99.99,,,-99.99,,2013-02-03 23:52:00,
2013-02-03 19:02:00,64.0,43.0,30.07,West,274,8.0,13.0,47,-99.99,,,-99.99,,2013-02-04 00:02:00,
2013-02-03 19:11:00,63.0,44.0,30.07,West,277,7.0,11.0,50,-99.99,,,-99.99,,2013-02-04 00:11:00,
2013-02-03 19:22:00,63.0,44.0,30.07,West,277,7.0,11.0,50,-99.99,,,-99.99,,2013-02-04 00:22:00,
2013-02-03 19:32:00,62.0,42.0,30.07,West,265,6.0,8.0,48,-99.99,,,-99.99,,2013-02-04 00:32:00,
2013-02-03 19:42:00,60.0,42.0,30.08,West,264,6.0,9.0,50,-99.99,,,-99.99,,2013-02-04 00:42:00,
2013-02-03 19:52:00,61.0,42.0,30.08,West,268,6.0,12.0,51,-99.99,,,-99.99,,2013-02-04 00:52:00,
2013-02-03 20:01:00,61.0,42.0,30.08,West,268,6.0,12.0,51,-99.99,,,-99.99,,2013-02-04 01:01:00,
2013-02-03 20:11:00,60.0,43.0,30.09,West,270,6.0,9.0,52,-99.99,,,-99.99,,2013-02-04 01:11:00,
2013-02-03 20:21:00,60.0,43.0,30.09,West,270,6.0,9.0,52,-99.99,,,-99.99,,2013-02-04 01:21:00,
2013-02-03 20:32:00,59.0,43.0,30.09,West,276,6.0,9.0,55,-99.99,,,-99.99,,2013-02-04 01:32:00,
2013-02-03 20:42:00,58.0,43.0,30.09,West,273,7.0,10.0,56,-99.99,,,-99.99,,2013-02-04 01:42:00,
2013-02-03 20:52:00,58.0,42.0,30.10,West,274,7.0,10.0,55,-99.99,,,-99.99,,2013-02-04 01:52:00,
2013-02-03 21:02:00,58.0,42.0,30.10,West,274,7.0,10.0,55,-99.99,,,-99.99,,2013-02-04 02:02:00,
2013-02-03 21:11:00,57.0,42.0,30.10,West,277,6.0,9.0,57,-99.99,,,-99.99,,2013-02-04 02:11:00,
2013-02-03 21:22:00,57.0,42.0,30.10,West,277,6.0,9.0,57,-99.99,,,-99.99,,2013-02-04 02:22:00,
2013-02-03 21:32:00,56.0,42.0,30.11,West,275,7.0,10.0,60,-99.99,,,-99.99,,2013-02-04 02:32:00,
2013-02-03 21:42:00,56.0,42.0,30.11,West,270,6.0,9.0,59,-99.99,,,-99.99,,2013-02-04 02:42:00,
2013-02-03 21:52:00,55.0,41.0,30.11,West,274,7.0,11.0,58,-99.99,,,-99.99,,2013-02-04 02:52:00,
2013-02-03 22:02:00,55.0,41.0,30.11,West,274,7.0,11.0,58,-99.99,,,-99.99,,2013-02-04 03:02:00,
2013-02-03 22:11:00,55.0,42.0,30.12,West,278,7.0,11.0,60,-99.99,,,-99.99,,2013-02-04 03:11:00,
2013-02-03 22:21:00,55.0,42.0,30.12,West,278,7.0,11.0,60,-99.99,,,-99.99,,2013-02-04 03:21:00,
2013-02-03 22:32:00,54.0,43.0,30.11,West,279,7.0,10.0,64,-99.99,,,-99.99,,2013-02-04 03:32:00,
2013-02-03 22:42:00,54.0,43.0,30.11,West,278,6.0,11.0,65,-99.99,,,-99.99,,2013-02-04 03:42:00,
2013-02-03 22:52:00,53.0,42.0,30.11,West,276,6.0,9.0,65,-99.99,,,-99.99,,2013-02-04 03:52:00,
2013-02-03 23:02:00,53.0,42.0,30.11,West,276,6.0,9.0,65,-99.99,,,-99.99,,2013-02-04 04:02:00,
2013-02-03 23:11:00,53.0,43.0,30.12,WNW,284,5.0,8.0,68,-99.99,,,-99.99,,2013-02-04 04:11:00,
2013-02-03 23:21:00,53.0,43.0,30.12,WNW,284,5.0,8.0,68,-99.99,,,-99.99,,2013-02-04 04:21:00,
2013-02-03 23:32:00,53.0,43.0,30.12,WNW,299,8.0,13.0,69,-99.99,,,-99.99,,2013-02-04 04:32:00,
2013-02-03 23:42:00,54.0,44.0,30.12,NW,304,9.0,13.0,68,-99.99,,,-99.99,,2013-02-04 04:42:00,
2013-02-03 23:52:00,51.0,42.0,30.12,West,275,5.0,7.0,70,-99.99,,,-99.99,,2013-02-04 04:52:00,